createdAt,value
2023-08-03T00:01:29.220Z,14.90
2023-08-03T00:03:58.419Z,14.80
2023-08-03T00:06:27.182Z,14.69
2023-08-03T00:08:55.177Z,14.64
2023-08-03T00:11:23.264Z,14.57
2023-08-03T00:13:52.487Z,14.47
2023-08-03T00:16:20.284Z,14.40
2023-08-03T00:18:48.662Z,14.38
2023-08-03T00:21:34.855Z,14.28
2023-08-03T00:24:03.545Z,14.23
2023-08-03T00:26:31.330Z,14.13
2023-08-03T00:29:00.458Z,14.22
2023-08-03T00:31:29.144Z,14.22
2023-08-03T00:33:57.958Z,14.27
2023-08-03T00:36:26.158Z,14.29
2023-08-03T00:38:53.893Z,14.27
2023-08-03T00:41:21.727Z,14.24
2023-08-03T00:43:49.653Z,14.21
2023-08-03T00:46:19.956Z,14.17
2023-08-03T00:48:47.878Z,14.14
2023-08-03T00:51:15.848Z,14.13
2023-08-03T00:53:46.986Z,14.12
2023-08-03T00:56:14.743Z,14.07
2023-08-03T00:58:43.126Z,14.04
2023-08-03T01:01:11.310Z,14.01
2023-08-03T01:03:40.443Z,13.93
2023-08-03T01:06:08.354Z,13.86
2023-08-03T01:08:36.241Z,13.76
2023-08-03T01:11:04.005Z,13.73
2023-08-03T01:13:31.859Z,13.72
2023-08-03T01:16:01.086Z,13.68
2023-08-03T01:18:29.014Z,13.63
2023-08-03T01:20:59.794Z,13.58
2023-08-03T01:23:29.387Z,13.56
2023-08-03T01:25:57.112Z,13.54
2023-08-03T01:28:24.894Z,13.50
2023-08-03T01:30:52.800Z,13.43
2023-08-03T01:33:21.476Z,13.43
2023-08-03T01:35:51.752Z,13.40
2023-08-03T01:38:19.503Z,13.38
2023-08-03T01:40:48.729Z,13.33
2023-08-03T01:43:17.065Z,13.24
2023-08-03T01:45:45.012Z,13.23
2023-08-03T01:48:31.162Z,13.22
2023-08-03T01:50:58.934Z,13.21
2023-08-03T01:53:27.018Z,13.29
2023-08-03T01:55:56.124Z,13.48
2023-08-03T01:58:24.607Z,13.64
2023-08-03T02:00:52.454Z,13.78
2023-08-03T02:03:20.284Z,13.78
2023-08-03T02:05:48.047Z,13.84
2023-08-03T02:08:15.835Z,13.95
2023-08-03T02:10:43.707Z,13.98
2023-08-03T02:13:12.795Z,14.10
2023-08-03T02:15:42.107Z,14.09
2023-08-03T02:18:09.939Z,14.09
2023-08-03T02:20:37.762Z,14.08
2023-08-03T02:23:05.584Z,14.09
2023-08-03T02:25:33.380Z,14.05
2023-08-03T02:28:21.207Z,14.02
2023-08-03T02:30:49.861Z,14.03
2023-08-03T02:33:17.831Z,14.01
2023-08-03T02:35:45.673Z,13.98
2023-08-03T02:38:31.956Z,13.95
2023-08-03T02:41:00.001Z,13.93
2023-08-03T02:43:30.217Z,13.90
2023-08-03T02:45:58.026Z,13.88
2023-08-03T02:48:25.854Z,13.84
2023-08-03T02:50:53.574Z,13.79
2023-08-03T02:53:21.399Z,13.75
2023-08-03T02:55:49.193Z,13.74
2023-08-03T02:58:16.937Z,13.72
2023-08-03T03:00:46.086Z,13.72
2023-08-03T03:03:14.035Z,13.74
2023-08-03T03:05:41.847Z,13.77
2023-08-03T03:08:09.640Z,13.75
2023-08-03T03:10:37.517Z,13.78
2023-08-03T03:13:05.651Z,13.83
2023-08-03T03:15:33.569Z,13.84
2023-08-03T03:18:03.591Z,13.89
2023-08-03T03:20:31.487Z,13.91
2023-08-03T03:22:59.294Z,13.89
2023-08-03T03:25:27.054Z,13.96
2023-08-03T03:27:54.907Z,14.03
2023-08-03T03:30:22.646Z,14.07
2023-08-03T03:32:50.337Z,14.40
2023-08-03T03:35:19.412Z,14.51
2023-08-03T03:37:47.228Z,14.61
2023-08-03T03:40:15.429Z,14.83
2023-08-03T03:42:43.290Z,14.80
2023-08-03T03:45:11.325Z,14.95
2023-08-03T03:47:39.144Z,15.11
2023-08-03T03:50:07.832Z,15.27
2023-08-03T03:52:37.107Z,15.33
2023-08-03T03:55:05.212Z,15.40
2023-08-03T03:57:33.210Z,15.50
2023-08-03T04:00:02.385Z,15.54
2023-08-03T04:02:30.175Z,15.58
2023-08-03T04:04:57.955Z,15.63
2023-08-03T04:07:25.705Z,15.69
2023-08-03T04:09:54.812Z,15.75
2023-08-03T04:12:22.655Z,15.78
2023-08-03T04:14:50.514Z,15.93
2023-08-03T04:17:18.205Z,15.98
2023-08-03T04:19:45.993Z,16.01
2023-08-03T04:22:32.387Z,16.16
2023-08-03T04:25:08.762Z,16.26
2023-08-03T04:27:36.558Z,16.33
2023-08-03T04:30:04.744Z,16.45
2023-08-03T04:32:32.502Z,16.52
2023-08-03T04:35:18.860Z,16.52
2023-08-03T04:37:46.861Z,16.54
2023-08-03T04:40:16.188Z,16.63
2023-08-03T04:42:43.917Z,16.67
2023-08-03T04:45:12.053Z,16.77
2023-08-03T04:47:40.332Z,16.79
2023-08-03T04:50:08.975Z,16.81
2023-08-03T04:52:36.795Z,16.95
2023-08-03T04:55:05.538Z,17.09
2023-08-03T04:57:34.638Z,17.21
2023-08-03T05:00:02.531Z,17.25
2023-08-03T05:02:30.324Z,17.35
2023-08-03T05:04:58.074Z,17.39
2023-08-03T05:07:25.922Z,17.42
2023-08-03T05:09:53.667Z,17.38
2023-08-03T05:12:21.591Z,17.48
2023-08-03T05:14:50.764Z,17.49
2023-08-03T05:17:18.545Z,17.51
2023-08-03T05:19:46.247Z,17.53
2023-08-03T05:22:14.262Z,17.61
2023-08-03T05:24:42.030Z,17.61
2023-08-03T05:27:10.816Z,17.71
2023-08-03T05:29:38.719Z,17.79
2023-08-03T05:32:08.877Z,17.84
2023-08-03T05:34:55.235Z,17.90
2023-08-03T05:37:23.033Z,18.10
2023-08-03T05:39:50.790Z,18.21
2023-08-03T05:42:19.711Z,18.47
2023-08-03T05:44:47.681Z,18.57
2023-08-03T05:47:18.821Z,18.75
2023-08-03T05:49:46.860Z,18.95
2023-08-03T05:52:16.488Z,19.12
2023-08-03T05:54:48.633Z,19.25
2023-08-03T05:57:19.750Z,19.19
2023-08-03T05:59:48.966Z,19.30
2023-08-03T06:02:31.204Z,19.41
2023-08-03T06:04:59.062Z,19.56
2023-08-03T06:07:26.877Z,19.69
2023-08-03T06:09:54.778Z,19.83
2023-08-03T06:12:22.584Z,19.93
2023-08-03T06:14:50.351Z,20.02
2023-08-03T06:17:23.930Z,20.00
2023-08-03T06:19:51.970Z,20.04
2023-08-03T06:22:22.324Z,20.00
2023-08-03T06:24:51.752Z,20.02
2023-08-03T06:27:19.557Z,19.88
2023-08-03T06:29:47.401Z,19.89
2023-08-03T06:32:23.667Z,19.93
2023-08-03T06:34:52.842Z,19.93
2023-08-03T06:37:21.266Z,19.80
2023-08-03T06:39:50.963Z,19.82
2023-08-03T06:42:18.853Z,19.91
2023-08-03T06:44:46.830Z,20.05
2023-08-03T06:47:14.710Z,20.26
2023-08-03T06:50:04.628Z,20.34
2023-08-03T06:52:32.462Z,20.20
2023-08-03T06:55:02.400Z,20.10
2023-08-03T06:57:30.313Z,20.16
2023-08-03T06:59:59.638Z,20.24
2023-08-03T07:02:27.846Z,20.17
2023-08-03T07:04:55.694Z,20.18
2023-08-03T07:07:25.192Z,20.19
2023-08-03T07:09:52.982Z,20.20
2023-08-03T07:12:20.786Z,20.01
2023-08-03T07:14:48.751Z,19.93
2023-08-03T07:17:17.010Z,20.00
2023-08-03T07:19:45.001Z,20.13
2023-08-03T07:22:12.890Z,20.21
2023-08-03T07:24:42.035Z,20.08
2023-08-03T07:27:09.843Z,20.00
2023-08-03T07:29:37.580Z,20.10
2023-08-03T07:32:06.758Z,20.21
2023-08-03T07:34:34.752Z,20.24
2023-08-03T07:37:21.274Z,20.37
2023-08-03T07:39:50.408Z,20.45
2023-08-03T07:42:18.151Z,20.42
2023-08-03T07:45:04.690Z,20.47
2023-08-03T07:47:32.975Z,20.41
2023-08-03T07:50:01.556Z,20.40
2023-08-03T07:52:30.395Z,20.23
2023-08-03T07:55:18.058Z,20.27
2023-08-03T07:57:47.247Z,20.31
2023-08-03T08:00:15.905Z,20.05
2023-08-03T08:02:43.868Z,19.93
2023-08-03T08:05:11.834Z,19.95
2023-08-03T08:07:39.603Z,19.87
2023-08-03T08:10:08.340Z,19.93
2023-08-03T08:12:37.476Z,20.03
2023-08-03T08:15:05.848Z,20.07
2023-08-03T08:17:33.751Z,20.04
2023-08-03T08:20:02.340Z,19.94
2023-08-03T08:22:30.276Z,19.88
2023-08-03T08:24:58.296Z,19.82
2023-08-03T08:27:26.341Z,19.71
2023-08-03T08:29:55.531Z,19.69
2023-08-03T08:32:23.429Z,19.59
2023-08-03T08:34:51.317Z,19.56
2023-08-03T08:37:19.085Z,19.55
2023-08-03T08:39:46.890Z,19.50
2023-08-03T08:42:16.291Z,19.48
2023-08-03T08:44:44.265Z,19.38
2023-08-03T08:47:13.799Z,19.38
2023-08-03T08:49:42.666Z,19.42
2023-08-03T08:52:13.069Z,19.46
2023-08-03T08:57:12.590Z,19.33
2023-08-03T09:00:03.259Z,19.17
2023-08-03T09:02:32.409Z,19.14
2023-08-03T09:05:09.728Z,19.04
2023-08-03T09:07:37.698Z,18.94
2023-08-03T09:10:06.182Z,18.84
2023-08-03T09:12:34.304Z,18.75
2023-08-03T09:15:02.261Z,18.74
2023-08-03T09:17:30.217Z,18.73
2023-08-03T09:25:02.582Z,18.82
2023-08-03T09:30:01.913Z,18.73
2023-08-03T09:32:35.777Z,18.83
2023-08-03T09:35:17.620Z,18.76
2023-08-03T09:37:46.150Z,18.75
2023-08-03T09:40:17.068Z,18.52
2023-08-03T09:42:50.095Z,18.63
2023-08-03T09:47:52.339Z,18.78
2023-08-03T09:50:22.453Z,18.82
2023-08-03T09:52:54.845Z,18.86
2023-08-03T09:55:29.283Z,18.85
2023-08-03T09:58:02.517Z,18.85
2023-08-03T10:00:31.423Z,18.81
2023-08-03T10:03:05.790Z,18.74
2023-08-03T10:05:40.729Z,18.66
2023-08-03T10:08:12.371Z,18.56
2023-08-03T10:10:45.378Z,18.51
2023-08-03T10:13:13.466Z,18.43
2023-08-03T10:15:43.486Z,18.33
2023-08-03T10:18:12.366Z,18.41
2023-08-03T10:20:43.065Z,18.52
2023-08-03T10:23:16.203Z,18.80
2023-08-03T10:25:55.991Z,19.00
2023-08-03T10:28:24.838Z,19.15
2023-08-03T10:31:12.423Z,19.19
2023-08-03T10:34:16.843Z,19.14
2023-08-03T10:36:50.513Z,19.16
2023-08-03T10:39:52.389Z,19.00
2023-08-03T10:42:29.229Z,18.76
2023-08-03T10:45:27.600Z,18.62
2023-08-03T10:47:56.932Z,18.68
2023-08-03T10:50:59.506Z,18.80
2023-08-03T10:53:29.083Z,18.74
2023-08-03T10:56:08.577Z,18.96
2023-08-03T10:58:48.831Z,19.17
2023-08-03T11:01:22.370Z,19.19
2023-08-03T11:03:50.410Z,19.18
2023-08-03T11:06:18.739Z,19.07
2023-08-03T11:09:07.649Z,18.95
2023-08-03T11:11:35.662Z,19.02
2023-08-03T11:14:05.523Z,19.11
2023-08-03T11:16:34.222Z,18.95
2023-08-03T11:19:02.200Z,18.90
2023-08-03T11:21:30.143Z,19.01
2023-08-03T11:23:57.912Z,19.13
2023-08-03T11:26:45.718Z,19.25
2023-08-03T11:29:32.852Z,19.48
2023-08-03T11:32:00.755Z,19.75
2023-08-03T11:34:28.952Z,19.74
2023-08-03T11:36:57.360Z,19.77
2023-08-03T11:39:25.300Z,19.75
2023-08-03T11:41:57.598Z,19.55
2023-08-03T11:44:26.230Z,19.49
2023-08-03T11:47:04.697Z,19.29
2023-08-03T11:49:32.978Z,18.98
2023-08-03T11:52:01.901Z,18.94
2023-08-03T11:54:32.100Z,18.85
2023-08-03T11:57:23.825Z,18.77
2023-08-03T11:59:52.226Z,18.74
2023-08-03T12:02:41.950Z,18.76
2023-08-03T12:05:11.434Z,18.78
2023-08-03T12:08:05.976Z,18.82
2023-08-03T12:10:32.546Z,18.94
2023-08-03T12:13:03.000Z,18.93
2023-08-03T12:18:03.664Z,19.11
2023-08-03T12:20:50.645Z,19.15
2023-08-03T12:23:19.050Z,19.01
2023-08-03T12:25:46.835Z,18.86
2023-08-03T12:28:16.228Z,18.73
2023-08-03T12:30:44.066Z,18.66
2023-08-03T12:33:12.669Z,18.55
2023-08-03T12:35:40.508Z,18.37
2023-08-03T12:38:08.291Z,18.25
2023-08-03T12:40:36.177Z,18.29
2023-08-03T12:43:04.021Z,18.29
2023-08-03T12:45:33.201Z,18.41
2023-08-03T12:48:03.723Z,18.55
2023-08-03T12:50:46.209Z,18.52
2023-08-03T12:53:15.104Z,18.67
2023-08-03T12:55:42.918Z,18.56
2023-08-03T12:58:10.772Z,18.51
2023-08-03T13:00:40.199Z,18.46
2023-08-03T13:03:08.462Z,18.34
2023-08-03T13:05:38.746Z,18.36
2023-08-03T13:08:07.439Z,18.36
2023-08-03T13:10:35.278Z,18.36
2023-08-03T13:13:03.869Z,18.23
2023-08-03T13:15:31.772Z,18.12
2023-08-03T13:18:01.485Z,18.09
2023-08-03T13:20:29.491Z,18.02
2023-08-03T13:22:57.802Z,18.03
2023-08-03T13:25:26.169Z,18.06
2023-08-03T13:27:54.051Z,18.05
2023-08-03T13:30:22.134Z,18.04
2023-08-03T13:32:49.931Z,18.05
2023-08-03T13:35:37.746Z,18.07
2023-08-03T13:38:05.588Z,18.04
2023-08-03T13:40:33.371Z,18.02
2023-08-03T13:43:02.285Z,18.08
2023-08-03T13:45:30.095Z,18.12
2023-08-03T13:47:58.446Z,18.16
2023-08-03T13:50:26.427Z,18.17
2023-08-03T13:52:55.639Z,18.20
2023-08-03T13:55:23.376Z,18.16
2023-08-03T13:58:04.757Z,18.15
2023-08-03T14:00:46.530Z,18.07
2023-08-03T14:03:14.911Z,18.05
2023-08-03T14:09:12.057Z,18.17
2023-08-03T14:11:21.915Z,18.10
2023-08-03T14:18:51.207Z,18.05
2023-08-03T14:21:44.182Z,18.00
2023-08-03T14:24:08.273Z,17.98
2023-08-03T14:26:36.260Z,18.07
2023-08-03T14:29:04.870Z,18.07
2023-08-03T14:31:51.226Z,18.07
2023-08-03T14:34:18.997Z,18.10
2023-08-03T14:36:47.744Z,18.14
2023-08-03T14:39:17.816Z,18.07
2023-08-03T14:41:49.700Z,18.10
2023-08-03T14:44:21.446Z,18.11
2023-08-03T14:47:00.777Z,18.14
2023-08-03T14:54:29.461Z,18.33
2023-08-03T14:56:57.425Z,18.33
2023-08-03T14:59:25.295Z,18.40
2023-08-03T15:01:53.156Z,18.38
2023-08-03T15:04:21.107Z,18.40
2023-08-03T15:06:49.204Z,18.44
2023-08-03T15:09:37.172Z,18.46
2023-08-03T15:12:06.543Z,18.60
2023-08-03T15:14:34.864Z,18.66
2023-08-03T15:17:22.350Z,18.75
2023-08-03T15:19:51.239Z,18.86
2023-08-03T15:22:19.594Z,18.94
2023-08-03T15:24:50.790Z,19.05
2023-08-03T15:34:53.419Z,19.16
2023-08-03T15:37:22.453Z,19.23
2023-08-03T15:39:54.433Z,19.28
2023-08-03T15:42:29.729Z,19.45
2023-08-03T15:45:01.613Z,19.69
2023-08-03T15:48:09.056Z,19.92
2023-08-03T15:50:27.336Z,20.01
2023-08-03T15:53:22.788Z,20.09
2023-08-03T15:56:06.131Z,20.14
2023-08-03T15:58:34.198Z,20.20
2023-08-03T16:01:05.051Z,20.18
2023-08-03T16:03:33.299Z,20.17
2023-08-03T16:06:06.013Z,20.15
2023-08-03T16:08:33.978Z,20.26
2023-08-03T16:11:03.465Z,20.35
2023-08-03T16:13:33.110Z,20.42
2023-08-03T16:16:02.482Z,20.56
2023-08-03T16:18:30.562Z,20.55
2023-08-03T16:20:59.224Z,20.62
2023-08-03T16:23:27.058Z,20.49
2023-08-03T16:25:54.837Z,20.39
2023-08-03T16:28:22.698Z,20.30
2023-08-03T16:30:51.857Z,20.15
2023-08-03T16:36:17.138Z,19.87
2023-08-03T16:39:04.253Z,19.73
2023-08-03T16:41:32.282Z,19.66
2023-08-03T16:44:18.840Z,19.50
2023-08-03T16:46:48.147Z,19.44
2023-08-03T16:49:18.814Z,19.35
2023-08-03T16:51:46.731Z,19.32
2023-08-03T16:54:32.900Z,19.22
2023-08-03T16:57:01.257Z,19.23
2023-08-03T16:59:29.569Z,19.19
2023-08-03T17:01:58.719Z,19.14
2023-08-03T17:04:26.493Z,19.21
2023-08-03T17:06:54.940Z,19.21
2023-08-03T17:09:22.740Z,19.21
2023-08-03T17:11:50.522Z,19.18
2023-08-03T17:14:22.192Z,19.12
2023-08-03T17:16:52.020Z,19.06
2023-08-03T17:19:21.723Z,19.02
2023-08-03T17:21:50.394Z,19.10
2023-08-03T17:24:36.919Z,19.14
2023-08-03T17:27:05.585Z,19.12
2023-08-03T17:29:33.285Z,19.10
2023-08-03T17:32:01.113Z,19.06
2023-08-03T17:34:30.336Z,18.97
2023-08-03T17:36:58.149Z,18.98
2023-08-03T17:39:25.935Z,18.88
2023-08-03T17:41:53.886Z,18.86
2023-08-03T17:44:23.107Z,18.79
2023-08-03T17:46:51.484Z,18.79
2023-08-03T17:49:19.400Z,18.79
2023-08-03T17:51:48.629Z,18.76
2023-08-03T17:54:16.486Z,18.67
2023-08-03T17:56:45.188Z,18.62
2023-08-03T17:59:13.521Z,18.61
2023-08-03T18:01:41.331Z,18.59
2023-08-03T18:04:09.212Z,18.59
2023-08-03T18:06:37.058Z,18.57
2023-08-03T18:09:08.973Z,18.61
2023-08-03T18:11:36.741Z,18.56
2023-08-03T18:14:04.585Z,18.51
2023-08-03T18:16:32.534Z,18.48
2023-08-03T18:19:00.752Z,18.47
2023-08-03T18:21:28.975Z,18.42
2023-08-03T18:23:57.831Z,18.42
2023-08-03T18:26:27.446Z,18.45
2023-08-03T18:28:56.152Z,18.38
2023-08-03T18:31:42.606Z,18.36
2023-08-03T18:34:10.355Z,18.39
2023-08-03T18:36:38.502Z,18.34
2023-08-03T18:39:06.304Z,18.21
2023-08-03T18:41:35.387Z,18.22
2023-08-03T18:44:03.701Z,18.07
2023-08-03T18:46:31.508Z,18.01
2023-08-03T18:48:59.358Z,17.91
2023-08-03T18:51:27.091Z,17.91
2023-08-03T18:53:55.068Z,17.89
2023-08-03T18:56:24.308Z,17.90
2023-08-03T18:58:56.345Z,17.97
2023-08-03T19:01:42.775Z,18.05
2023-08-03T19:04:10.559Z,17.97
2023-08-03T19:06:38.267Z,18.03
2023-08-03T19:09:06.076Z,17.98
2023-08-03T19:11:33.861Z,17.99
2023-08-03T19:14:04.036Z,17.90
2023-08-03T19:19:04.638Z,17.89
2023-08-03T19:21:32.564Z,17.87
2023-08-03T19:24:00.348Z,17.73
2023-08-03T19:26:28.902Z,17.68
2023-08-03T19:28:56.646Z,17.67
2023-08-03T19:31:45.142Z,17.64
2023-08-03T19:34:13.153Z,17.71
2023-08-03T19:36:40.994Z,17.73
2023-08-03T19:39:08.762Z,17.72
2023-08-03T19:41:36.521Z,17.76
2023-08-03T19:44:04.382Z,17.68
2023-08-03T19:46:32.164Z,17.77
2023-08-03T19:49:01.340Z,17.85
2023-08-03T20:06:53.721Z,17.70
2023-08-03T20:09:21.699Z,17.72
2023-08-03T20:11:49.625Z,17.61
2023-08-03T20:14:37.029Z,17.67
2023-08-03T20:19:40.163Z,17.69
2023-08-03T20:22:08.229Z,17.71
2023-08-03T20:24:36.057Z,17.60
2023-08-03T20:27:07.083Z,17.68
2023-08-03T20:32:06.701Z,17.64
2023-08-03T20:34:35.106Z,17.64
2023-08-03T20:37:04.266Z,17.67
2023-08-03T20:39:35.357Z,17.61
2023-08-03T20:42:42.178Z,17.69
2023-08-03T20:49:53.289Z,17.56
2023-08-03T20:52:22.380Z,17.65
2023-08-03T20:54:50.451Z,17.58
2023-08-03T20:57:19.905Z,17.62
2023-08-03T20:59:48.066Z,17.55
2023-08-03T21:02:15.826Z,17.52
2023-08-03T21:07:17.275Z,17.52
2023-08-03T21:10:50.373Z,17.50
2023-08-03T21:12:34.372Z,17.56
2023-08-03T21:15:02.287Z,17.58
2023-08-03T21:17:32.516Z,17.53
2023-08-03T21:20:01.548Z,17.58
2023-08-03T21:22:29.471Z,17.50
2023-08-03T21:24:58.714Z,17.51
2023-08-03T21:27:26.545Z,17.53
2023-08-03T21:29:54.335Z,17.55
2023-08-03T21:32:22.418Z,17.60
2023-08-03T21:34:50.321Z,17.53
2023-08-03T21:37:18.134Z,17.52
2023-08-03T21:39:45.929Z,17.47
2023-08-03T21:42:15.071Z,17.45
2023-08-03T21:44:42.881Z,17.44
2023-08-03T21:47:11.549Z,17.43
2023-08-03T21:49:39.322Z,17.54
2023-08-03T21:52:08.000Z,17.59
2023-08-03T21:54:35.787Z,17.52
2023-08-03T21:57:03.527Z,17.51
2023-08-03T21:59:33.361Z,17.52
2023-08-03T22:02:01.509Z,17.57
2023-08-03T22:04:29.376Z,17.56
2023-08-03T22:06:57.109Z,17.59
2023-08-03T22:09:24.905Z,17.58
2023-08-03T22:11:52.997Z,17.59
2023-08-03T22:14:20.789Z,17.71
2023-08-03T22:16:49.982Z,17.60
2023-08-03T22:19:18.111Z,17.70
2023-08-03T22:21:50.973Z,17.63
2023-08-03T22:24:19.751Z,17.67
2023-08-03T22:26:47.485Z,17.57
2023-08-03T22:29:15.282Z,17.62
2023-08-03T22:31:43.087Z,17.57
2023-08-03T22:34:12.289Z,17.57
2023-08-03T22:36:40.067Z,17.57
2023-08-03T22:39:08.068Z,17.59
2023-08-03T22:41:35.793Z,17.54
2023-08-03T22:44:04.107Z,17.48
2023-08-03T22:46:31.968Z,17.62
2023-08-03T22:48:59.683Z,17.64
2023-08-03T22:51:29.660Z,17.64
2023-08-03T22:53:57.561Z,17.62
2023-08-03T22:56:25.426Z,17.55
2023-08-03T22:58:53.336Z,17.48
2023-08-03T23:01:22.326Z,17.53
2023-08-03T23:03:50.578Z,17.50
2023-08-03T23:06:21.274Z,17.47
2023-08-03T23:08:51.468Z,17.48
2023-08-03T23:11:19.380Z,17.43
2023-08-03T23:14:05.687Z,17.55
2023-08-03T23:16:34.002Z,17.65
2023-08-03T23:19:02.725Z,17.57
2023-08-03T23:21:30.577Z,17.61
2023-08-03T23:24:00.268Z,17.57
2023-08-03T23:26:28.895Z,17.59
2023-08-03T23:28:57.260Z,17.55
2023-08-03T23:31:26.365Z,17.58
2023-08-03T23:33:54.191Z,17.61
2023-08-03T23:36:22.107Z,17.56
2023-08-03T23:38:49.872Z,17.63
2023-08-03T23:41:19.602Z,17.61
2023-08-03T23:44:06.030Z,17.63
2023-08-03T23:46:33.888Z,17.67
2023-08-03T23:49:01.801Z,17.58
2023-08-03T23:51:31.384Z,17.58
2023-08-03T23:54:01.154Z,17.55
2023-08-03T23:56:32.945Z,17.50
2023-08-03T23:59:01.232Z,17.50
